Time;durP1;ratioP1;P1;durP2;ratioP2;P2;SDS_P1;SDS_P2;PMS_P1;PMS_P2;Temp;Humidity;BMP_temperature;BMP_pressure;BME280_temperature;BME280_humidity;BME280_pressure;Samples;Min_cycle;Max_cycle;Signal;HPM_P1;HPM_P2
2021/03/30 00:00:19;;;;;;;4.77;2.93;;;5.50;99.90;;;;;;5036284;28;20435;-68
2021/03/30 00:02:46;;;;;;;4.10;3.67;;;5.40;99.90;;;;;;5036996;28;20431;-68
2021/03/30 00:05:14;;;;;;;4.97;3.83;;;5.40;99.90;;;;;;5036612;28;20450;-67
2021/03/30 00:07:41;;;;;;;4.03;3.60;;;5.40;99.90;;;;;;5036721;28;20429;-67
2021/03/30 00:10:14;;;;;;;5.87;3.70;;;5.40;99.90;;;;;;5018827;28;20500;-68
2021/03/30 00:12:42;;;;;;;4.57;3.63;;;5.40;99.90;;;;;;5036098;28;20515;-68
2021/03/30 00:15:16;;;;;;;5.93;3.50;;;5.30;99.90;;;;;;5001912;28;20431;-67
2021/03/30 00:17:45;;;;;;;5.43;4.07;;;5.30;99.90;;;;;;5018712;28;20443;-67
2021/03/30 00:20:14;;;;;;;3.83;3.30;;;5.30;99.90;;;;;;5018787;28;20437;-69
2021/03/30 00:22:42;;;;;;;4.30;3.50;;;5.10;99.90;;;;;;5036512;28;20485;-68
2021/03/30 00:25:12;;;;;;;5.57;3.30;;;5.10;99.90;;;;;;5036150;28;20446;-68
2021/03/30 00:27:40;;;;;;;4.17;3.60;;;5.20;99.90;;;;;;5036273;28;20993;-68
2021/03/30 00:30:10;;;;;;;5.70;3.63;;;5.20;99.90;;;;;;5035992;28;20435;-68
2021/03/30 00:32:38;;;;;;;3.43;3.13;;;5.10;99.90;;;;;;5018094;28;21057;-70
2021/03/30 00:35:07;;;;;;;4.03;3.27;;;5.00;99.90;;;;;;5018688;28;20439;-68
2021/03/30 00:37:35;;;;;;;7.00;4.20;;;5.00;99.90;;;;;;5035962;28;20431;-67
2021/03/30 00:40:07;;;;;;;4.40;4.00;;;4.90;99.90;;;;;;5036278;28;20443;-70
2021/03/30 00:42:37;;;;;;;3.43;3.13;;;4.90;99.90;;;;;;5018300;28;20431;-69
2021/03/30 00:45:07;;;;;;;5.47;3.77;;;4.90;99.90;;;;;;5017680;28;20431;-69
2021/03/30 00:47:36;;;;;;;5.83;3.50;;;4.80;99.90;;;;;;5000732;28;21019;-71
2021/03/30 00:50:07;;;;;;;5.87;3.00;;;4.80;99.90;;;;;;5017659;28;21021;-69
2021/03/30 00:52:37;;;;;;;5.17;3.57;;;4.80;99.90;;;;;;5017975;28;20508;-69
2021/03/30 00:55:20;;;;;;;4.10;3.40;;;4.80;99.90;;;;;;5035502;28;20427;-69
2021/03/30 00:57:51;;;;;;;4.13;3.43;;;4.70;99.90;;;;;;5035605;28;20457;-68
2021/03/30 01:00:19;;;;;;;6.63;3.80;;;4.70;99.90;;;;;;5016548;28;20423;-67
2021/03/30 01:02:46;;;;;;;5.80;3.10;;;4.60;99.90;;;;;;5034748;28;20486;-71
2021/03/30 01:05:15;;;;;;;3.10;2.80;;;4.60;99.90;;;;;;5035110;28;20997;-71
2021/03/30 01:07:56;;;;;;;6.00;4.13;;;4.60;99.90;;;;;;5001181;28;20542;-68
2021/03/30 01:10:34;;;;;;;6.80;4.27;;;4.60;99.90;;;;;;5035134;28;20427;-69
2021/03/30 01:13:33;;;;;;;5.17;3.87;;;4.60;99.90;;;;;;5035329;28;20461;-68
2021/03/30 01:16:05;;;;;;;5.90;4.13;;;4.60;99.90;;;;;;5010811;28;20479;-68
2021/03/30 01:18:37;;;;;;;3.83;3.37;;;4.50;99.90;;;;;;5017511;28;20508;-71
2021/03/30 01:21:29;;;;;;;4.43;4.03;;;4.40;99.90;;;;;;5035182;28;20935;-68
2021/03/30 01:27:02;;;;;;;9.23;4.37;;;4.30;99.90;;;;;;5035321;28;20842;-69
2021/03/30 01:29:46;;;;;;;4.37;3.97;;;4.30;99.90;;;;;;5001254;28;20463;-69
2021/03/30 01:32:41;;;;;;;6.47;3.90;;;4.30;99.90;;;;;;5035216;28;20932;-67
2021/03/30 01:35:12;;;;;;;7.80;4.00;;;4.20;99.90;;;;;;5035541;28;20852;-67
2021/03/30 01:37:43;;;;;;;4.67;3.60;;;4.10;99.90;;;;;;5018394;28;20427;-67
2021/03/30 01:40:13;;;;;;;3.33;3.00;;;4.00;99.90;;;;;;5007624;28;20968;-67
2021/03/30 01:42:44;;;;;;;4.00;3.20;;;4.00;99.90;;;;;;5016828;28;20447;-68
2021/03/30 01:45:16;;;;;;;3.30;3.00;;;4.00;99.90;;;;;;5034758;28;20526;-69
2021/03/30 01:47:44;;;;;;;4.73;3.97;;;4.10;99.90;;;;;;5034721;28;20483;-69
2021/03/30 01:50:13;;;;;;;6.83;3.20;;;4.10;99.90;;;;;;5034835;28;20427;-68
2021/03/30 01:52:42;;;;;;;4.87;3.70;;;4.00;99.90;;;;;;5034734;28;20814;-68
2021/03/30 01:55:12;;;;;;;5.90;3.33;;;4.00;99.90;;;;;;5000681;28;20435;-67
2021/03/30 01:57:47;;;;;;;3.80;3.33;;;4.00;99.90;;;;;;5016854;28;20998;-67
2021/03/30 02:00:16;;;;;;;14.10;4.23;;;4.00;99.90;;;;;;5034377;28;20439;-70
2021/03/30 02:02:45;;;;;;;4.70;3.73;;;4.00;99.90;;;;;;5034695;28;20464;-68
2021/03/30 02:05:14;;;;;;;4.83;3.83;;;3.90;99.90;;;;;;5034536;28;20800;-67
2021/03/30 02:07:43;;;;;;;7.63;4.30;;;3.90;99.90;;;;;;5016453;28;20509;-68
2021/03/30 02:10:16;;;;;;;4.70;3.47;;;3.90;99.90;;;;;;5016994;28;20557;-70
2021/03/30 02:12:45;;;;;;;4.13;3.73;;;3.80;99.90;;;;;;5016866;28;20459;-70
2021/03/30 02:15:17;;;;;;;5.07;3.70;;;3.70;99.90;;;;;;5016281;28;20439;-72
2021/03/30 02:17:54;;;;;;;4.27;3.73;;;3.70;99.90;;;;;;5034410;28;20467;-67
2021/03/30 02:20:33;;;;;;;9.60;3.63;;;3.70;99.90;;;;;;5017449;28;20447;-70
2021/03/30 02:23:04;;;;;;;5.07;4.43;;;3.70;99.90;;;;;;5017039;28;20541;-68
2021/03/30 02:25:33;;;;;;;6.70;3.47;;;3.60;99.90;;;;;;5017171;28;20435;-67
2021/03/30 02:28:05;;;;;;;4.03;3.00;;;3.60;99.90;;;;;;5035258;28;20431;-67
2021/03/30 02:30:35;;;;;;;6.97;4.47;;;3.70;99.90;;;;;;5033861;28;20798;-68
2021/03/30 02:33:04;;;;;;;4.23;3.83;;;3.70;99.90;;;;;;5018913;28;20435;-69
2021/03/30 02:35:34;;;;;;;10.67;4.37;;;3.70;99.90;;;;;;5041280;28;20439;-70
2021/03/30 02:38:04;;;;;;;5.03;4.03;;;3.70;99.90;;;;;;5020627;28;20439;-68
2021/03/30 02:40:32;;;;;;;5.40;4.20;;;3.60;99.90;;;;;;5034866;28;20613;-67
2021/03/30 02:43:01;;;;;;;10.93;6.53;;;3.50;99.90;;;;;;5017051;28;20497;-68
2021/03/30 02:45:31;;;;;;;5.30;4.00;;;3.50;99.90;;;;;;5033666;28;20961;-70
2021/03/30 02:48:07;;;;;;;7.03;3.90;;;3.40;99.90;;;;;;5034845;28;20427;-68
2021/03/30 02:50:36;;;;;;;6.63;3.60;;;3.40;99.90;;;;;;5016957;28;20958;-67
2021/03/30 02:53:04;;;;;;;8.83;5.60;;;3.30;99.90;;;;;;5016640;28;20489;-67
2021/03/30 02:55:33;;;;;;;7.77;3.47;;;3.30;99.90;;;;;;5034044;28;20541;-66
2021/03/30 02:58:01;;;;;;;4.50;3.60;;;3.20;99.90;;;;;;5034360;28;20443;-68
2021/03/30 03:00:29;;;;;;;5.17;3.77;;;3.20;99.90;;;;;;5033802;28;20443;-68
2021/03/30 03:03:04;;;;;;;7.83;4.00;;;3.20;99.90;;;;;;5034564;28;20444;-67
2021/03/30 03:05:33;;;;;;;5.80;4.20;;;3.20;99.90;;;;;;5035223;28;20450;-67
2021/03/30 03:08:02;;;;;;;6.33;3.60;;;3.10;99.90;;;;;;5016449;28;20862;-66
2021/03/30 03:10:29;;;;;;;5.60;4.07;;;3.10;99.90;;;;;;5034097;28;20435;-67
2021/03/30 03:12:58;;;;;;;6.73;3.57;;;3.00;99.90;;;;;;5016289;28;20436;-68
2021/03/30 03:15:27;;;;;;;5.73;4.13;;;3.00;99.90;;;;;;5014488;28;20473;-69
2021/03/30 03:17:59;;;;;;;7.50;4.27;;;3.00;99.90;;;;;;5015597;28;20439;-67
2021/03/30 03:20:54;;;;;;;5.07;4.30;;;3.00;99.90;;;;;;5033197;28;20439;-66
2021/03/30 03:23:23;;;;;;;5.80;3.70;;;3.00;99.90;;;;;;5035530;28;20544;-67
2021/03/30 03:25:53;;;;;;;9.07;5.17;;;3.00;99.90;;;;;;5032420;28;20435;-70
2021/03/30 03:28:20;;;;;;;8.30;5.17;;;2.90;99.90;;;;;;5015808;28;20538;-67
2021/03/30 03:30:49;;;;;;;5.37;3.97;;;2.90;99.90;;;;;;5032244;28;20570;-68
2021/03/30 03:33:16;;;;;;;25.67;5.10;;;2.90;99.90;;;;;;4999355;28;20431;-67
2021/03/30 03:36:00;;;;;;;7.60;5.10;;;2.90;99.90;;;;;;5015248;28;20443;-68
2021/03/30 03:38:28;;;;;;;8.20;4.43;;;2.90;99.90;;;;;;5015456;28;21078;-67
2021/03/30 03:40:55;;;;;;;7.80;4.40;;;2.90;99.90;;;;;;5032982;28;20439;-67
2021/03/30 03:43:23;;;;;;;4.03;3.73;;;2.90;99.90;;;;;;5033149;28;20782;-67
2021/03/30 03:45:50;;;;;;;7.07;4.13;;;2.80;99.90;;;;;;5014440;28;20479;-69
2021/03/30 03:48:18;;;;;;;4.43;4.03;;;2.80;99.90;;;;;;5015909;28;20493;-67
2021/03/30 03:50:48;;;;;;;5.17;4.30;;;2.80;99.90;;;;;;5032758;28;20481;-67
2021/03/30 03:53:19;;;;;;;5.43;3.60;;;2.70;99.90;;;;;;5015261;28;20961;-67
2021/03/30 03:55:50;;;;;;;5.87;4.17;;;2.70;99.90;;;;;;5032664;28;20455;-68
2021/03/30 03:58:24;;;;;;;5.27;4.13;;;2.70;99.90;;;;;;5032766;28;20477;-67
2021/03/30 04:00:53;;;;;;;8.67;5.03;;;2.70;99.90;;;;;;5032160;28;20578;-67
2021/03/30 04:03:24;;;;;;;8.60;6.40;;;2.70;99.90;;;;;;5015070;28;20427;-70
2021/03/30 04:06:02;;;;;;;9.17;4.07;;;2.70;99.90;;;;;;5015744;28;20451;-67
2021/03/30 04:08:34;;;;;;;5.23;4.03;;;2.70;99.90;;;;;;5034417;28;20450;-67
2021/03/30 04:11:04;;;;;;;10.10;4.03;;;2.60;99.90;;;;;;5024475;28;20454;-67
2021/03/30 04:13:34;;;;;;;5.50;4.03;;;2.60;99.90;;;;;;5024139;28;20450;-68
2021/03/30 04:16:03;;;;;;;15.63;5.50;;;2.60;99.90;;;;;;5035716;28;20486;-69
2021/03/30 04:18:32;;;;;;;4.97;4.07;;;2.60;99.90;;;;;;5033084;28;20481;-67
2021/03/30 04:21:02;;;;;;;5.73;4.37;;;2.60;99.90;;;;;;5033397;28;20447;-66
2021/03/30 04:23:33;;;;;;;6.10;4.60;;;2.60;99.90;;;;;;5015154;28;20507;-68
2021/03/30 04:26:01;;;;;;;8.57;5.43;;;2.60;99.90;;;;;;5033359;28;20477;-67
2021/03/30 04:28:29;;;;;;;7.10;4.57;;;2.60;99.90;;;;;;5015404;28;20795;-67
2021/03/30 04:30:57;;;;;;;8.70;5.20;;;2.60;99.90;;;;;;5032011;28;20565;-68
2021/03/30 04:33:25;;;;;;;6.00;5.40;;;2.60;99.90;;;;;;5015006;28;20582;-68
2021/03/30 04:35:52;;;;;;;4.33;3.93;;;2.60;99.90;;;;;;5015713;28;20950;-68
2021/03/30 04:38:20;;;;;;;8.10;4.20;;;2.50;99.90;;;;;;5035656;28;20946;-68
2021/03/30 04:40:52;;;;;;;9.33;5.07;;;2.50;99.90;;;;;;5018665;28;20427;-68
2021/03/30 04:43:20;;;;;;;6.90;5.37;;;2.50;99.90;;;;;;5036436;28;20554;-68
2021/03/30 04:45:47;;;;;;;9.40;4.93;;;2.50;99.90;;;;;;5035836;28;20478;-67
2021/03/30 04:48:15;;;;;;;5.27;4.80;;;2.50;99.90;;;;;;5019065;28;20494;-68
2021/03/30 04:50:43;;;;;;;6.47;4.20;;;2.50;99.90;;;;;;5037658;28;20487;-68
2021/03/30 04:53:12;;;;;;;7.80;4.70;;;2.50;99.90;;;;;;5036901;28;20466;-68
2021/03/30 04:55:40;;;;;;;7.13;4.97;;;2.50;99.90;;;;;;5036305;28;20443;-68
2021/03/30 04:58:08;;;;;;;6.17;4.70;;;2.50;99.90;;;;;;5037166;28;20522;-68
2021/03/30 05:00:36;;;;;;;8.33;4.33;;;2.50;99.90;;;;;;5035680;28;20544;-68
2021/03/30 05:03:03;;;;;;;6.00;4.70;;;2.50;99.90;;;;;;5020295;28;20424;-67
2021/03/30 05:05:30;;;;;;;6.10;4.77;;;2.50;99.90;;;;;;5020413;28;20439;-70
2021/03/30 05:07:58;;;;;;;5.17;4.37;;;2.50;99.90;;;;;;5036424;28;20988;-68
2021/03/30 05:10:25;;;;;;;5.20;4.10;;;2.50;99.90;;;;;;5035786;28;20427;-68
2021/03/30 05:12:53;;;;;;;7.17;5.47;;;2.60;99.90;;;;;;5036000;28;20489;-68
2021/03/30 05:15:22;;;;;;;9.53;5.40;;;2.60;99.90;;;;;;5034741;28;20519;-68
2021/03/30 05:17:50;;;;;;;14.50;5.50;;;2.60;99.90;;;;;;5035785;28;20521;-68
2021/03/30 05:20:17;;;;;;;5.87;5.17;;;2.70;99.90;;;;;;5035894;28;20441;-68
2021/03/30 05:22:45;;;;;;;7.70;4.90;;;2.70;99.90;;;;;;5035333;28;20823;-68
2021/03/30 05:25:14;;;;;;;7.40;5.47;;;2.70;99.90;;;;;;5035637;28;20503;-68
2021/03/30 05:27:42;;;;;;;8.07;4.30;;;2.70;99.90;;;;;;5035435;28;20523;-67
2021/03/30 05:30:13;;;;;;;4.73;3.80;;;2.80;99.90;;;;;;5017663;28;20934;-67
2021/03/30 05:33:06;;;;;;;12.23;5.27;;;2.90;99.90;;;;;;5019400;28;20478;-66
2021/03/30 05:35:34;;;;;;;8.73;5.70;;;3.00;99.90;;;;;;5035493;28;20968;-69
2021/03/30 05:38:05;;;;;;;6.50;3.77;;;3.30;99.90;;;;;;5002282;28;20447;-67
2021/03/30 05:40:32;;;;;;;5.73;4.43;;;3.60;99.90;;;;;;5035896;28;20810;-67
2021/03/30 05:43:00;;;;;;;11.67;5.13;;;3.90;99.90;;;;;;5035369;28;20493;-67
2021/03/30 05:45:27;;;;;;;8.30;4.40;;;4.30;99.90;;;;;;5035337;28;20450;-70
2021/03/30 05:47:57;;;;;;;6.77;5.27;;;4.60;99.90;;;;;;5036279;28;20471;-67
2021/03/30 05:50:28;;;;;;;7.10;4.07;;;5.10;99.90;;;;;;5034372;28;20443;-68
2021/03/30 05:53:04;;;;;;;5.60;4.10;;;5.60;99.90;;;;;;5037876;28;20499;-67
2021/03/30 05:55:33;;;;;;;5.27;4.23;;;6.00;99.90;;;;;;5048709;28;20435;-68
2021/03/30 05:58:04;;;;;;;10.20;4.10;;;6.50;99.90;;;;;;5035545;28;20442;-67
2021/03/30 06:00:35;;;;;;;7.97;5.40;;;6.90;99.90;;;;;;5033935;28;20444;-70
2021/03/30 06:03:04;;;;;;;9.60;4.73;;;7.40;99.90;;;;;;5034342;28;20420;-67
2021/03/30 06:05:33;;;;;;;7.40;6.10;;;7.90;99.90;;;;;;5034419;28;20514;-68
2021/03/30 06:08:04;;;;;;;8.27;5.13;;;8.20;99.30;;;;;;5016912;28;20478;-68
2021/03/30 06:10:33;;;;;;;10.03;4.43;;;8.60;98.50;;;;;;5016297;28;20457;-68
2021/03/30 06:13:03;;;;;;;7.57;5.00;;;9.00;97.50;;;;;;5016506;28;20442;-68
2021/03/30 06:15:32;;;;;;;12.40;5.30;;;9.30;96.60;;;;;;5032948;28;20444;-67
2021/03/30 06:18:01;;;;;;;10.33;5.13;;;9.60;95.90;;;;;;5016513;28;20773;-68
2021/03/30 06:20:36;;;;;;;9.90;6.33;;;10.00;95.00;;;;;;5015939;28;20414;-68
2021/03/30 06:23:05;;;;;;;12.23;6.60;;;10.30;94.10;;;;;;5033781;28;20877;-70
2021/03/30 06:25:42;;;;;;;14.90;5.87;;;11.60;92.60;;;;;;5034192;28;20466;-72
2021/03/30 06:28:16;;;;;;;14.43;4.77;;;12.20;90.30;;;;;;5034069;28;20933;-68
2021/03/30 06:31:02;;;;;;;7.37;4.60;;;12.60;88.90;;;;;;5033192;28;20471;-68
2021/03/30 06:33:32;;;;;;;7.47;5.30;;;12.90;86.90;;;;;;5018283;28;20430;-68
2021/03/30 06:36:20;;;;;;;9.90;4.97;;;13.40;85.30;;;;;;5035088;28;20432;-68
2021/03/30 06:38:52;;;;;;;6.87;5.03;;;14.60;80.90;;;;;;5000769;28;20438;-69
2021/03/30 06:41:31;;;;;;;10.80;5.50;;;14.30;76.90;;;;;;5036958;28;20427;-69
2021/03/30 06:46:52;;;;;;;11.47;5.80;;;14.60;76.50;;;;;;5034302;28;20791;-69
2021/03/30 06:49:50;;;;;;;15.20;6.30;;;14.30;75.80;;;;;;5038101;28;20490;-68
2021/03/30 06:52:20;;;;;;;12.67;5.47;;;15.20;74.10;;;;;;5036207;28;20454;-69
2021/03/30 06:54:52;;;;;;;14.83;5.90;;;15.30;71.40;;;;;;5036575;28;20443;-68
2021/03/30 06:57:38;;;;;;;12.57;5.97;;;14.20;73.10;;;;;;5017208;28;20473;-71
2021/03/30 07:00:09;;;;;;;8.17;5.70;;;15.00;72.70;;;;;;5014981;28;20789;-68
2021/03/30 07:02:41;;;;;;;6.70;5.00;;;15.90;70.90;;;;;;5015470;28;20480;-68
2021/03/30 07:05:20;;;;;;;9.20;5.70;;;16.30;68.40;;;;;;5033643;28;20435;-72
2021/03/30 07:07:53;;;;;;;13.73;6.10;;;17.00;67.40;;;;;;5015657;28;21061;-69
2021/03/30 07:10:32;;;;;;;9.77;6.07;;;17.00;66.70;;;;;;5034052;28;20435;-69
2021/03/30 07:13:00;;;;;;;13.87;5.50;;;17.10;64.40;;;;;;5034009;28;20431;-69
2021/03/30 07:15:29;;;;;;;8.90;5.73;;;17.30;64.20;;;;;;5032943;28;20451;-69
2021/03/30 07:18:08;;;;;;;10.37;7.77;;;16.90;64.00;;;;;;5016699;28;20778;-70
2021/03/30 07:20:39;;;;;;;15.03;8.40;;;16.60;64.70;;;;;;5034192;28;20469;-69
2021/03/30 07:23:11;;;;;;;13.60;5.80;;;16.70;65.90;;;;;;5033997;28;20513;-69
2021/03/30 07:25:44;;;;;;;14.10;5.90;;;16.50;65.20;;;;;;4999947;28;20455;-69
2021/03/30 07:28:17;;;;;;;15.40;5.57;;;16.20;66.90;;;;;;5016357;28;20505;-69
2021/03/30 07:30:50;;;;;;;15.87;6.33;;;16.30;67.30;;;;;;5012284;28;20534;-71
2021/03/30 07:33:26;;;;;;;11.77;5.47;;;16.00;67.90;;;;;;4996425;28;20435;-69
2021/03/30 07:35:57;;;;;;;10.83;6.00;;;16.60;66.40;;;;;;4980771;28;20859;-69
2021/03/30 07:38:32;;;;;;;15.90;5.53;;;18.30;64.20;;;;;;4996948;28;20531;-69
2021/03/30 07:41:00;;;;;;;8.70;5.30;;;19.30;59.20;;;;;;5014412;28;20558;-71
2021/03/30 07:43:29;;;;;;;11.80;6.37;;;19.40;59.40;;;;;;5013893;28;20438;-72
2021/03/30 07:46:00;;;;;;;8.10;5.33;;;20.70;56.30;;;;;;5020598;28;20566;-70
2021/03/30 07:48:29;;;;;;;11.97;6.63;;;20.10;55.30;;;;;;5034322;28;20832;-69
2021/03/30 07:51:01;;;;;;;7.73;5.90;;;20.10;56.60;;;;;;5016125;28;20513;-69
2021/03/30 07:53:45;;;;;;;8.07;5.57;;;19.50;55.50;;;;;;5033960;28;20461;-69
2021/03/30 07:56:33;;;;;;;12.70;6.40;;;20.50;56.00;;;;;;5034028;28;20493;-69
2021/03/30 07:59:03;;;;;;;10.63;6.17;;;21.20;54.20;;;;;;5033657;28;20474;-70
2021/03/30 08:01:33;;;;;;;7.20;5.47;;;21.80;51.70;;;;;;5033976;28;20498;-72
2021/03/30 08:04:03;;;;;;;15.60;6.27;;;23.50;48.90;;;;;;5035401;28;20526;-70
2021/03/30 08:06:48;;;;;;;8.83;5.90;;;24.20;46.60;;;;;;5023968;28;20446;-70
2021/03/30 08:09:19;;;;;;;13.63;6.07;;;23.60;45.20;;;;;;5051002;28;20466;-69
2021/03/30 08:11:49;;;;;;;12.77;6.57;;;23.50;45.80;;;;;;5051728;28;20466;-70
2021/03/30 08:14:41;;;;;;;12.43;5.77;;;22.50;46.00;;;;;;5055694;28;20412;-69
2021/03/30 08:17:18;;;;;;;9.07;5.47;;;22.20;45.70;;;;;;5034181;28;20471;-69
2021/03/30 08:20:07;;;;;;;7.17;5.20;;;22.20;45.30;;;;;;5035686;28;20461;-70
2021/03/30 08:22:57;;;;;;;9.10;6.20;;;22.40;46.20;;;;;;5054644;28;20478;-70
2021/03/30 08:28:55;;;;;;;12.43;6.53;;;21.90;46.00;;;;;;5028178;28;20479;-70
2021/03/30 08:31:26;;;;;;;7.80;5.53;;;24.10;44.70;;;;;;5040630;28;20621;-74
2021/03/30 08:33:56;;;;;;;8.23;5.83;;;26.10;41.40;;;;;;5037152;23;21429;-67
2021/03/30 08:36:26;;;;;;;7.73;6.10;;;25.60;41.20;;;;;;5058318;28;20757;-66
2021/03/30 08:38:58;;;;;;;16.20;7.70;;;25.20;42.10;;;;;;5057756;28;20436;-66
2021/03/30 08:41:59;;;;;;;9.53;6.80;;;25.00;40.50;;;;;;5057878;28;20494;-66
2021/03/30 08:44:37;;;;;;;8.27;6.63;;;23.40;41.50;;;;;;5057970;28;20857;-66
2021/03/30 08:47:28;;;;;;;10.30;5.70;;;22.90;42.80;;;;;;5056490;28;20517;-67
2021/03/30 08:50:12;;;;;;;12.40;7.97;;;23.40;42.00;;;;;;5058022;28;20953;-69
2021/03/30 08:52:39;;;;;;;27.90;23.57;;;24.00;41.40;;;;;;5039977;28;20446;-67
2021/03/30 08:55:09;;;;;;;12.03;7.47;;;26.00;41.50;;;;;;5057176;28;20418;-67
2021/03/30 08:57:38;;;;;;;7.90;6.47;;;27.30;37.00;;;;;;5039316;28;21008;-67
2021/03/30 09:00:12;;;;;;;12.87;6.63;;;28.10;35.10;;;;;;5057894;28;20438;-67
2021/03/30 09:02:41;;;;;;;12.90;6.77;;;27.60;35.90;;;;;;5056959;28;20496;-69
2021/03/30 09:05:15;;;;;;;7.30;5.73;;;27.50;35.90;;;;;;5041625;28;20435;-67
2021/03/30 09:07:47;;;;;;;9.53;6.10;;;29.20;33.70;;;;;;5022877;28;20481;-68
2021/03/30 09:10:16;;;;;;;10.43;5.70;;;28.70;33.30;;;;;;5056753;28;20439;-68
2021/03/30 09:12:46;;;;;;;12.63;7.10;;;28.00;33.80;;;;;;5038936;28;20422;-68
2021/03/30 09:15:16;;;;;;;13.30;6.60;;;29.50;32.50;;;;;;5056584;28;20444;-68
2021/03/30 09:17:58;;;;;;;16.23;6.30;;;28.10;32.50;;;;;;5038276;28;20450;-68
2021/03/30 09:20:28;;;;;;;8.27;6.60;;;27.50;32.80;;;;;;5056790;28;20557;-68
2021/03/30 09:22:58;;;;;;;7.80;6.20;;;27.10;34.70;;;;;;5056106;28;20847;-67
2021/03/30 09:25:34;;;;;;;8.70;6.90;;;28.70;31.60;;;;;;5055859;28;20435;-68
2021/03/30 09:28:03;;;;;;;10.30;5.60;;;30.70;29.60;;;;;;5056646;28;20541;-68
2021/03/30 09:30:31;;;;;;;10.07;5.77;;;31.50;28.20;;;;;;5055656;28;20438;-67
2021/03/30 09:32:59;;;;;;;9.50;4.97;;;30.50;28.20;;;;;;5057351;28;20520;-70
2021/03/30 09:35:28;;;;;;;8.50;5.70;;;32.10;27.50;;;;;;5055385;28;20481;-68
2021/03/30 09:38:01;;;;;;;7.80;5.23;;;29.20;29.30;;;;;;5037893;28;20434;-67
2021/03/30 09:40:32;;;;;;;11.77;5.97;;;27.80;29.50;;;;;;5055932;28;20438;-67
2021/03/30 09:43:00;;;;;;;9.70;5.60;;;26.90;32.80;;;;;;5038242;28;20832;-68
2021/03/30 09:45:30;;;;;;;11.10;6.20;;;26.60;32.20;;;;;;5037595;28;20470;-67
2021/03/30 09:48:00;;;;;;;7.67;5.83;;;26.70;32.80;;;;;;5055483;28;20473;-67
2021/03/30 09:50:29;;;;;;;7.83;5.50;;;26.30;32.20;;;;;;5055755;28;20478;-66
2021/03/30 09:53:02;;;;;;;8.33;5.10;;;25.50;33.40;;;;;;5038854;28;20432;-69
2021/03/30 09:55:32;;;;;;;8.07;6.60;;;27.80;33.30;;;;;;5055996;28;20427;-67
2021/03/30 09:58:01;;;;;;;10.53;6.17;;;28.80;30.50;;;;;;5055880;28;20500;-67
2021/03/30 10:00:31;;;;;;;7.13;5.60;;;29.50;30.00;;;;;;5055149;28;20507;-67
2021/03/30 10:02:59;;;;;;;8.43;5.77;;;28.80;30.40;;;;;;5058864;28;20444;-68
2021/03/30 10:05:32;;;;;;;8.13;6.03;;;29.70;30.00;;;;;;5057130;28;20420;-67
2021/03/30 10:08:00;;;;;;;9.77;6.87;;;31.20;28.10;;;;;;5038548;28;20535;-70
2021/03/30 10:10:41;;;;;;;12.57;7.10;;;31.80;28.10;;;;;;5055463;28;20426;-70
2021/03/30 10:13:21;;;;;;;9.63;5.80;;;31.00;28.00;;;;;;5037345;28;20438;-68
2021/03/30 10:15:51;;;;;;;6.90;5.37;;;30.10;28.80;;;;;;5055021;28;20475;-69
2021/03/30 10:18:22;;;;;;;7.73;6.47;;;30.00;28.10;;;;;;5037840;28;20441;-68
2021/03/30 10:20:52;;;;;;;10.13;5.40;;;26.60;30.10;;;;;;5037951;28;20504;-68
2021/03/30 10:23:22;;;;;;;6.30;5.10;;;25.20;34.00;;;;;;5038021;28;20539;-68
2021/03/30 10:25:51;;;;;;;6.53;4.67;;;25.30;33.00;;;;;;5055242;28;20492;-68
2021/03/30 10:28:27;;;;;;;6.53;4.80;;;25.80;33.60;;;;;;5055773;28;20896;-70
2021/03/30 10:31:00;;;;;;;7.10;4.30;;;26.20;32.40;;;;;;5055934;28;20466;-68
2021/03/30 10:33:37;;;;;;;9.30;4.67;;;26.30;30.50;;;;;;5056560;28;20431;-68
2021/03/30 10:36:05;;;;;;;7.43;4.50;;;26.30;31.80;;;;;;5055895;28;20803;-68
2021/03/30 10:38:33;;;;;;;8.63;5.40;;;27.30;31.90;;;;;;5056498;28;20465;-68
2021/03/30 10:41:07;;;;;;;7.60;5.50;;;28.50;29.70;;;;;;5055889;28;20500;-68
2021/03/30 10:43:35;;;;;;;6.67;4.83;;;30.30;28.00;;;;;;5055249;28;20472;-68
2021/03/30 10:46:18;;;;;;;5.87;4.83;;;30.80;27.80;;;;;;5054624;28;20470;-68
2021/03/30 10:48:57;;;;;;;7.30;4.60;;;27.20;28.50;;;;;;5055701;28;20454;-68
2021/03/30 10:51:26;;;;;;;5.53;5.00;;;28.90;29.00;;;;;;5055633;28;20442;-67
2021/03/30 10:53:55;;;;;;;8.60;5.87;;;26.40;30.10;;;;;;5055245;28;20470;-67
2021/03/30 10:56:23;;;;;;;6.27;5.10;;;27.60;31.90;;;;;;5056071;28;20444;-68
2021/03/30 10:58:51;;;;;;;5.27;4.77;;;29.50;29.00;;;;;;5055787;28;20446;-67
2021/03/30 11:01:19;;;;;;;10.20;4.80;;;29.80;28.30;;;;;;5054670;28;20556;-67
2021/03/30 11:03:46;;;;;;;6.37;4.40;;;31.70;27.30;;;;;;5055301;28;20434;-67
2021/03/30 11:06:13;;;;;;;7.07;5.00;;;29.70;28.50;;;;;;5054604;28;20426;-67
2021/03/30 11:08:41;;;;;;;11.10;4.73;;;29.10;29.00;;;;;;5055190;28;20462;-69
2021/03/30 11:11:08;;;;;;;5.20;4.70;;;25.40;30.10;;;;;;5055751;28;20423;-68
2021/03/30 11:13:36;;;;;;;7.17;4.83;;;26.00;32.60;;;;;;5040948;28;20559;-67
2021/03/30 11:16:05;;;;;;;9.57;5.70;;;25.50;32.50;;;;;;5061525;28;20470;-67
2021/03/30 11:18:35;;;;;;;9.23;7.17;;;25.40;34.20;;;;;;5044674;28;20431;-68
2021/03/30 11:21:03;;;;;;;10.33;4.93;;;26.30;31.20;;;;;;5042928;28;20533;-70
2021/03/30 11:23:30;;;;;;;7.47;5.30;;;26.90;29.70;;;;;;5044582;28;20434;-67
2021/03/30 11:25:58;;;;;;;10.53;6.07;;;26.80;31.30;;;;;;5061496;28;20443;-68
2021/03/30 11:28:29;;;;;;;6.70;5.20;;;26.90;31.20;;;;;;5064400;28;20545;-67
2021/03/30 11:30:58;;;;;;;5.40;4.50;;;27.90;30.70;;;;;;5063348;28;20486;-68
2021/03/30 11:33:28;;;;;;;8.73;5.40;;;28.00;29.90;;;;;;5045660;28;20439;-66
2021/03/30 11:36:05;;;;;;;6.17;4.97;;;28.30;30.50;;;;;;5059162;28;20907;-68
2021/03/30 11:38:32;;;;;;;6.70;5.30;;;30.80;28.50;;;;;;5062891;28;20501;-68
2021/03/30 11:41:00;;;;;;;5.63;5.10;;;30.70;27.50;;;;;;5064827;28;20430;-68
2021/03/30 11:43:30;;;;;;;4.93;4.20;;;30.30;27.50;;;;;;5061508;28;20441;-67
2021/03/30 11:45:58;;;;;;;9.83;5.80;;;31.10;28.00;;;;;;5055347;28;20810;-68
2021/03/30 11:48:26;;;;;;;6.30;4.50;;;30.10;27.50;;;;;;5058847;28;20964;-68
2021/03/30 11:50:53;;;;;;;6.03;4.87;;;28.90;28.70;;;;;;5059369;28;20461;-68
2021/03/30 11:53:22;;;;;;;6.83;4.57;;;28.70;28.80;;;;;;5059344;28;20448;-68
2021/03/30 11:55:52;;;;;;;6.07;5.57;;;27.50;28.10;;;;;;5059481;28;20465;-68
2021/03/30 11:58:20;;;;;;;12.97;6.47;;;29.20;28.80;;;;;;5058772;28;20439;-68
2021/03/30 12:00:47;;;;;;;6.50;5.10;;;29.60;28.80;;;;;;5058202;28;20458;-68
2021/03/30 12:03:14;;;;;;;6.40;5.70;;;28.60;28.70;;;;;;5041973;28;20525;-68
2021/03/30 12:05:42;;;;;;;5.27;4.77;;;29.70;28.20;;;;;;5058579;28;20442;-68
2021/03/30 12:08:09;;;;;;;5.50;4.13;;;30.00;28.40;;;;;;5058285;28;20561;-67
2021/03/30 12:11:06;;;;;;;5.50;4.90;;;29.60;27.60;;;;;;5058100;28;20517;-70
2021/03/30 12:13:34;;;;;;;6.40;5.70;;;27.70;28.60;;;;;;5058092;28;20444;-70
2021/03/30 12:16:02;;;;;;;10.83;4.70;;;26.90;30.00;;;;;;5038981;28;20470;-69
2021/03/30 12:18:32;;;;;;;5.40;4.50;;;26.40;29.80;;;;;;5058072;28;20933;-68
2021/03/30 12:20:59;;;;;;;5.53;4.00;;;28.80;28.00;;;;;;5058082;28;20441;-68
2021/03/30 12:23:27;;;;;;;4.80;4.30;;;30.60;27.20;;;;;;5040609;28;20977;-68
2021/03/30 12:25:55;;;;;;;4.53;4.13;;;32.10;26.10;;;;;;5058462;28;20437;-70
2021/03/30 12:28:23;;;;;;;6.57;4.67;;;31.20;26.60;;;;;;5040904;28;21029;-67
2021/03/30 12:30:52;;;;;;;9.43;4.87;;;30.90;26.30;;;;;;5057662;28;20469;-70
2021/03/30 12:33:24;;;;;;;5.67;3.97;;;27.60;27.40;;;;;;5058494;28;20988;-68
2021/03/30 12:35:52;;;;;;;5.40;4.40;;;28.40;29.40;;;;;;5058649;28;20988;-71
2021/03/30 12:38:20;;;;;;;5.00;4.50;;;29.30;27.70;;;;;;5058248;28;20959;-67
2021/03/30 12:40:51;;;;;;;5.00;4.50;;;27.10;27.90;;;;;;5057130;28;20438;-66
2021/03/30 12:43:20;;;;;;;5.60;3.70;;;26.50;29.60;;;;;;5057371;28;20492;-66
2021/03/30 12:46:14;;;;;;;6.20;5.00;;;25.40;31.60;;;;;;5035227;28;20564;-67
2021/03/30 12:48:41;;;;;;;6.63;4.03;;;26.90;30.40;;;;;;5036604;28;20467;-69
2021/03/30 12:51:09;;;;;;;6.50;4.00;;;26.60;29.90;;;;;;5037159;28;20485;-67
2021/03/30 12:53:37;;;;;;;7.63;5.30;;;25.90;30.40;;;;;;5037702;28;20424;-67
2021/03/30 12:56:05;;;;;;;5.20;4.27;;;25.20;31.70;;;;;;5035979;28;20478;-66
2021/03/30 12:58:33;;;;;;;6.97;4.40;;;24.70;32.80;;;;;;5036986;28;20915;-66
2021/03/30 13:01:00;;;;;;;5.27;4.67;;;24.10;32.70;;;;;;5044566;28;20545;-66
2021/03/30 13:03:48;;;;;;;5.27;3.83;;;24.20;34.30;;;;;;5056953;28;20513;-69
2021/03/30 13:06:16;;;;;;;12.30;11.03;;;24.20;34.30;;;;;;5056939;28;20462;-67
2021/03/30 13:08:43;;;;;;;17.17;15.13;;;25.10;33.90;;;;;;5057213;28;20458;-66
2021/03/30 13:11:36;;;;;;;5.50;3.80;;;26.10;31.70;;;;;;5039117;28;20529;-65
2021/03/30 13:14:04;;;;;;;6.33;3.70;;;25.50;32.00;;;;;;5038998;28;20433;-66
2021/03/30 13:16:32;;;;;;;4.80;4.40;;;24.90;33.30;;;;;;5056030;28;20485;-66
2021/03/30 13:19:00;;;;;;;5.40;3.90;;;24.40;33.00;;;;;;5057422;28;20801;-65
2021/03/30 13:24:39;;;;;;;4.23;3.83;;;25.90;32.20;;;;;;5056712;28;20461;-68